Time;durP1;ratioP1;P1;durP2;ratioP2;P2;SDS_P1;SDS_P2;PMS_P1;PMS_P2;Temp;Humidity;BMP_temperature;BMP_pressure;BME280_temperature;BME280_humidity;BME280_pressure;Samples;Min_cycle;Max_cycle;Signal;HPM_P1;HPM_P2
2022/11/22 00:03:21;;;;;;;17.00;6.95;;;7.10;98.90;;;;;;10526690;28;20485;-64
2022/11/22 00:08:22;;;;;;;12.57;5.57;;;7.50;99.00;;;;;;10525862;28;20123;-64
2022/11/22 00:13:22;;;;;;;12.00;6.45;;;7.10;98.90;;;;;;10511541;28;20040;-64
2022/11/22 00:18:23;;;;;;;12.32;5.78;;;7.20;98.90;;;;;;10525462;28;20024;-64
2022/11/22 00:23:24;;;;;;;10.73;5.22;;;7.60;99.00;;;;;;10522304;28;20032;-64
2022/11/22 00:28:25;;;;;;;13.05;5.50;;;7.10;98.90;;;;;;10526006;28;20024;-64
2022/11/22 00:33:25;;;;;;;15.18;5.93;;;7.20;98.90;;;;;;10515842;28;20028;-64
2022/11/22 00:38:26;;;;;;;10.55;5.65;;;7.10;98.90;;;;;;10517056;28;20117;-64
2022/11/22 00:43:27;;;;;;;10.88;5.55;;;7.10;99.10;;;;;;10519161;28;20043;-64
2022/11/22 00:48:28;;;;;;;13.50;5.57;;;7.10;98.90;;;;;;10499238;28;20028;-65
2022/11/22 00:53:28;;;;;;;9.77;5.03;;;7.50;99.00;;;;;;10517886;28;20026;-64
2022/11/22 00:58:29;;;;;;;11.10;5.43;;;7.30;98.90;;;;;;10526117;28;20105;-64
2022/11/22 01:03:30;;;;;;;10.25;4.90;;;7.10;98.90;;;;;;10528759;28;20107;-64
2022/11/22 01:08:31;;;;;;;10.40;5.22;;;7.10;98.90;;;;;;10533229;28;20103;-64
2022/11/22 01:13:33;;;;;;;10.60;4.88;;;7.10;98.90;;;;;;10533045;28;20047;-65
2022/11/22 01:18:34;;;;;;;12.05;5.55;;;7.40;99.00;;;;;;10532716;28;20146;-64
2022/11/22 01:23:35;;;;;;;11.45;4.90;;;7.20;98.90;;;;;;10533737;28;20385;-64
2022/11/22 01:28:38;;;;;;;9.15;4.95;;;7.10;98.90;;;;;;10532094;28;20024;-64
2022/11/22 01:33:39;;;;;;;10.32;5.07;;;7.10;98.90;;;;;;10532686;28;20035;-64
2022/11/22 01:38:40;;;;;;;8.32;4.80;;;7.10;98.90;;;;;;10524211;28;20378;-65
2022/11/22 01:43:40;;;;;;;9.02;4.57;;;7.10;98.90;;;;;;10527734;28;20634;-64
2022/11/22 01:49:20;;;;;;;10.20;4.68;;;7.10;98.90;;;;;;10522841;28;20031;-64
2022/11/22 01:54:24;;;;;;;8.43;4.25;;;7.10;99.00;;;;;;10526252;28;20028;-64
2022/11/22 01:59:29;;;;;;;9.60;4.10;;;7.10;98.90;;;;;;10531504;28;20050;-64
2022/11/22 02:04:31;;;;;;;8.95;4.80;;;7.20;99.00;;;;;;10530856;28;20024;-65
2022/11/22 02:09:32;;;;;;;8.43;4.60;;;7.10;99.00;;;;;;10530450;28;20090;-64
2022/11/22 02:14:33;;;;;;;9.93;4.35;;;7.20;99.00;;;;;;10530157;28;20136;-64
2022/11/22 02:19:47;;;;;;;7.93;4.40;;;7.10;99.00;;;;;;10530514;28;20048;-64
2022/11/22 02:25:05;;;;;;;10.73;4.28;;;7.40;99.10;;;;;;10530174;28;20016;-64
2022/11/22 02:30:06;;;;;;;9.95;4.50;;;7.10;99.00;;;;;;10520539;28;20047;-64
2022/11/22 02:35:18;;;;;;;10.40;4.43;;;7.10;99.00;;;;;;10510718;28;20047;-64
2022/11/22 02:40:20;;;;;;;9.88;4.65;;;7.20;99.10;;;;;;10516702;28;20093;-64
2022/11/22 02:45:21;;;;;;;9.32;4.40;;;7.20;99.00;;;;;;10529447;28;20047;-65
2022/11/22 02:50:21;;;;;;;8.95;4.57;;;7.10;99.00;;;;;;10528966;28;20038;-64
2022/11/22 02:55:22;;;;;;;8.15;4.45;;;7.90;99.20;;;;;;10527221;28;20469;-64
2022/11/22 03:00:23;;;;;;;12.75;5.40;;;7.20;99.10;;;;;;10503216;28;20093;-64
2022/11/22 03:05:24;;;;;;;8.43;4.43;;;7.20;99.10;;;;;;10529180;28;20016;-64
2022/11/22 03:10:25;;;;;;;11.07;4.45;;;7.40;99.10;;;;;;10523051;28;20476;-64
2022/11/22 03:15:25;;;;;;;9.07;4.70;;;7.20;99.10;;;;;;10521629;28;20048;-64
2022/11/22 03:20:26;;;;;;;9.20;4.05;;;7.40;99.10;;;;;;10513759;28;20105;-64
2022/11/22 03:25:27;;;;;;;8.07;4.57;;;7.20;99.10;;;;;;10523423;28;20024;-64
2022/11/22 03:30:28;;;;;;;8.88;4.35;;;7.20;99.10;;;;;;10514100;28;20028;-64
2022/11/22 03:35:29;;;;;;;6.82;4.05;;;7.60;99.20;;;;;;10528001;28;20027;-63
2022/11/22 03:40:30;;;;;;;8.35;4.35;;;7.40;99.10;;;;;;10520182;28;20127;-64
2022/11/22 03:45:30;;;;;;;9.32;4.45;;;7.20;99.10;;;;;;10513016;28;20020;-64
2022/11/22 03:50:31;;;;;;;8.25;4.22;;;7.90;99.30;;;;;;10524096;28;20032;-64
2022/11/22 03:55:32;;;;;;;7.15;4.07;;;7.30;99.10;;;;;;10527249;28;20028;-65
2022/11/22 04:00:34;;;;;;;7.65;4.30;;;7.20;99.10;;;;;;10526161;28;20119;-64
2022/11/22 04:05:34;;;;;;;10.60;4.85;;;7.30;99.10;;;;;;10512383;28;20095;-63
2022/11/22 04:10:35;;;;;;;9.73;4.43;;;7.30;99.10;;;;;;10526089;28;20040;-64
2022/11/22 04:15:36;;;;;;;9.18;4.53;;;7.30;99.10;;;;;;10525991;28;20033;-64
2022/11/22 04:25:57;;;;;;;8.18;4.30;;;7.70;99.20;;;;;;10517607;28;20024;-65
2022/11/22 04:36:17;;;;;;;8.70;4.30;;;7.90;99.30;;;;;;10518443;28;20097;-64
2022/11/22 04:41:18;;;;;;;9.60;4.40;;;7.30;99.10;;;;;;10524891;28;20032;-64
2022/11/22 04:46:19;;;;;;;10.02;4.13;;;7.30;99.10;;;;;;10521821;28;20085;-64
2022/11/22 04:56:38;;;;;;;;;;;7.30;99.10;;;;;;10523711;28;20042;-64
2022/11/22 05:01:39;;;;;;;9.38;4.32;;;7.40;99.40;;;;;;10504717;28;19904;-64
2022/11/22 05:06:40;;;;;;;7.78;3.47;;;7.40;99.10;;;;;;10521755;28;20024;-64
2022/11/22 05:11:40;;;;;;;9.73;4.38;;;7.40;99.10;;;;;;10514143;28;20027;-64
2022/11/22 05:16:41;;;;;;;8.32;3.70;;;7.40;99.10;;;;;;10524974;28;20560;-65
2022/11/22 05:21:42;;;;;;;8.27;4.05;;;8.50;99.40;;;;;;10524841;28;20036;-64
2022/11/22 05:26:42;;;;;;;8.50;3.90;;;7.40;99.20;;;;;;10507008;28;20023;-64
2022/11/22 05:31:43;;;;;;;5.60;3.40;;;7.40;99.20;;;;;;10511296;28;20081;-63
2022/11/22 05:36:44;;;;;;;7.45;3.92;;;7.40;99.30;;;;;;10496177;28;20496;-63
2022/11/22 05:41:54;;;;;;;6.95;3.47;;;7.30;99.30;;;;;;10516974;28;20039;-64
2022/11/22 05:46:55;;;;;;;7.85;3.60;;;7.40;99.30;;;;;;10527273;28;20058;-64
2022/11/22 05:51:56;;;;;;;6.80;3.55;;;7.40;99.30;;;;;;10518681;28;20031;-64
2022/11/22 05:56:56;;;;;;;8.55;3.95;;;7.80;99.50;;;;;;10507993;28;20035;-64
2022/11/22 06:01:57;;;;;;;7.18;3.58;;;7.40;99.40;;;;;;10507171;28;20039;-64
2022/11/22 06:06:58;;;;;;;5.68;3.17;;;7.30;99.40;;;;;;10515578;28;20029;-63
2022/11/22 06:11:58;;;;;;;4.90;3.20;;;7.40;99.40;;;;;;10520577;28;20100;-63
2022/11/22 06:16:59;;;;;;;5.05;3.00;;;7.30;99.40;;;;;;10529881;28;20036;-64
2022/11/22 06:22:00;;;;;;;4.95;2.80;;;7.30;99.50;;;;;;10498034;28;20023;-64
2022/11/22 06:27:00;;;;;;;6.47;3.30;;;7.30;99.50;;;;;;10514366;28;20032;-64
2022/11/22 06:32:01;;;;;;;5.47;2.75;;;7.40;99.50;;;;;;10506652;28;20123;-64
2022/11/22 06:37:02;;;;;;;6.35;3.00;;;7.70;99.60;;;;;;10509522;28;20044;-63
2022/11/22 06:42:02;;;;;;;7.03;3.00;;;8.60;99.80;;;;;;10509698;28;20277;-64
2022/11/22 06:47:03;;;;;;;4.63;2.60;;;7.30;99.50;;;;;;10500106;28;20055;-63
2022/11/22 06:52:04;;;;;;;6.93;2.90;;;7.30;99.50;;;;;;10509875;28;20024;-64
2022/11/22 06:57:04;;;;;;;7.15;2.92;;;7.30;99.50;;;;;;10519471;28;20492;-65
2022/11/22 07:02:09;;;;;;;5.65;2.42;;;7.30;99.50;;;;;;10499068;28;20042;-63
2022/11/22 07:07:10;;;;;;;17.63;4.25;;;8.10;99.70;;;;;;10506836;28;20041;-64
2022/11/22 07:12:10;;;;;;;11.55;3.55;;;7.30;99.70;;;;;;10516040;28;20532;-64
2022/11/22 07:17:11;;;;;;;9.20;2.88;;;7.40;99.70;;;;;;10517830;28;20120;-64
2022/11/22 07:22:12;;;;;;;5.28;2.72;;;7.40;99.70;;;;;;10507144;28;20017;-64
2022/11/22 07:27:13;;;;;;;4.18;2.15;;;7.40;99.70;;;;;;10514238;28;20286;-64
2022/11/22 07:32:14;;;;;;;7.60;2.33;;;7.40;99.70;;;;;;10516190;28;20028;-63
2022/11/22 07:37:15;;;;;;;13.45;2.80;;;7.30;99.80;;;;;;10503166;28;20039;-64
2022/11/22 07:42:16;;;;;;;10.57;2.25;;;7.40;99.80;;;;;;10431427;28;20031;-64
2022/11/22 07:47:17;;;;;;;5.05;2.03;;;7.40;99.70;;;;;;10472609;28;20684;-64
2022/11/22 07:52:18;;;;;;;3.78;2.17;;;7.40;99.70;;;;;;10441745;28;20044;-63
2022/11/22 07:57:18;;;;;;;6.30;2.22;;;7.30;99.80;;;;;;10416101;28;20036;-63
2022/11/22 08:02:19;;;;;;;7.70;2.50;;;7.70;99.80;;;;;;10428251;28;20770;-63
2022/11/22 08:07:20;;;;;;;4.32;2.30;;;7.30;99.70;;;;;;10424517;28;20427;-63
2022/11/22 08:12:21;;;;;;;4.15;1.70;;;7.30;99.60;;;;;;10427217;28;20105;-64
2022/11/22 08:17:22;;;;;;;6.43;2.20;;;7.40;99.70;;;;;;10437884;28;20483;-64
2022/11/22 08:22:23;;;;;;;4.57;1.80;;;7.40;99.60;;;;;;10432217;28;20140;-64
2022/11/22 08:27:24;;;;;;;6.10;2.03;;;7.40;99.70;;;;;;10411225;28;20059;-64
2022/11/22 08:32:25;;;;;;;8.10;1.75;;;7.40;99.60;;;;;;10419913;28;20562;-64
2022/11/22 08:37:25;;;;;;;6.40;1.70;;;7.40;99.70;;;;;;10414860;28;20709;-64
2022/11/22 08:42:26;;;;;;;5.40;1.70;;;7.70;99.60;;;;;;10429275;28;20078;-64
2022/11/22 08:47:27;;;;;;;4.25;1.73;;;7.40;99.60;;;;;;10435849;28;20677;-64
2022/11/22 08:52:28;;;;;;;9.98;2.10;;;7.60;99.70;;;;;;10439686;28;20021;-64
2022/11/22 08:57:28;;;;;;;3.65;1.90;;;7.40;99.60;;;;;;10420099;28;20863;-64
2022/11/22 09:02:29;;;;;;;5.75;1.52;;;7.40;99.60;;;;;;10431206;28;20567;-64
2022/11/22 09:07:30;;;;;;;8.25;1.90;;;7.40;99.60;;;;;;10438958;28;20988;-64
2022/11/22 09:12:34;;;;;;;3.25;1.73;;;7.50;99.60;;;;;;10441787;28;20186;-64
2022/11/22 09:17:35;;;;;;;5.22;1.85;;;7.40;99.60;;;;;;10437359;28;20043;-64
2022/11/22 09:22:37;;;;;;;4.55;1.75;;;7.40;99.60;;;;;;10446751;28;20031;-64
2022/11/22 09:27:38;;;;;;;5.65;2.42;;;7.50;99.60;;;;;;10447511;28;20023;-65
2022/11/22 09:32:39;;;;;;;5.00;1.70;;;7.50;99.50;;;;;;10440742;28;20023;-64
2022/11/22 09:37:40;;;;;;;5.65;1.77;;;7.50;99.50;;;;;;10436369;28;20051;-64
2022/11/22 09:43:09;;;;;;;7.53;2.17;;;7.50;99.50;;;;;;10438599;28;20016;-64
2022/11/22 09:48:29;;;;;;;5.47;1.73;;;7.50;99.40;;;;;;10444093;28;20391;-64
2022/11/22 09:53:52;;;;;;;3.55;1.58;;;7.60;99.40;;;;;;10441083;28;20571;-64
2022/11/22 09:59:08;;;;;;;5.93;1.20;;;7.90;99.50;;;;;;10438246;28;20423;-64
2022/11/22 10:04:42;;;;;;;6.85;2.15;;;7.70;99.40;;;;;;10444053;28;20354;-64
2022/11/22 10:10:01;;;;;;;4.93;1.63;;;7.70;99.30;;;;;;10421523;28;20032;-64
2022/11/22 10:15:20;;;;;;;;;;;7.70;99.30;;;;;;10441289;28;20066;-64
2022/11/22 10:20:25;;;;;;;8.15;2.33;;;7.70;99.50;;;;;;10436643;28;19916;-64
2022/11/22 10:25:39;;;;;;;3.92;1.33;;;7.80;99.20;;;;;;10443333;28;20416;-64
2022/11/22 10:30:47;;;;;;;9.48;1.50;;;7.80;99.30;;;;;;10440172;28;20020;-64
2022/11/22 10:36:25;;;;;;;4.93;1.40;;;8.00;99.20;;;;;;10444490;28;20464;-64
2022/11/22 10:41:52;;;;;;;2.90;1.57;;;7.90;99.20;;;;;;10435023;28;20158;-64
2022/11/22 10:47:08;;;;;;;5.35;1.50;;;8.30;99.30;;;;;;10447638;28;20038;-64
2022/11/22 10:52:28;;;;;;;6.18;1.17;;;8.00;99.10;;;;;;10442670;28;20588;-64
2022/11/22 10:57:36;;;;;;;2.95;1.13;;;8.00;99.10;;;;;;10430297;28;20148;-66
2022/11/22 11:03:06;;;;;;;3.77;1.40;;;8.00;99.10;;;;;;10435046;28;20020;-64
2022/11/22 11:08:16;;;;;;;3.83;1.38;;;8.00;99.10;;;;;;10443190;28;20024;-64
2022/11/22 11:13:24;;;;;;;6.88;1.40;;;8.00;99.10;;;;;;10444201;28;20439;-64
2022/11/22 11:18:40;;;;;;;3.90;1.05;;;8.00;99.10;;;;;;10432893;28;20176;-64
2022/11/22 11:23:41;;;;;;;6.22;1.58;;;8.00;99.10;;;;;;10441097;28;20547;-64
2022/11/22 11:28:42;;;;;;;1.77;0.88;;;8.00;99.10;;;;;;10440864;28;20400;-64
2022/11/22 11:33:43;;;;;;;5.32;1.23;;;8.00;99.10;;;;;;10436856;28;20360;-64
2022/11/22 11:38:44;;;;;;;5.82;1.33;;;8.10;99.10;;;;;;10424849;28;20568;-63
2022/11/22 11:43:45;;;;;;;2.72;1.20;;;8.10;99.10;;;;;;10433165;28;20049;-63
2022/11/22 11:48:48;;;;;;;2.78;1.38;;;8.10;99.10;;;;;;10443643;28;20482;-63
2022/11/22 11:54:10;;;;;;;4.15;1.20;;;8.10;99.10;;;;;;10443426;28;20368;-63
2022/11/22 11:59:36;;;;;;;5.22;1.20;;;8.20;99.20;;;;;;10433490;28;20068;-63
2022/11/22 12:04:52;;;;;;;3.22;1.30;;;8.10;99.10;;;;;;10423099;28;20109;-64
2022/11/22 12:09:54;;;;;;;5.28;1.33;;;8.10;99.20;;;;;;10442585;28;20024;-64
2022/11/22 12:15:24;;;;;;;2.95;1.20;;;8.10;99.20;;;;;;10442450;28;20206;-63
2022/11/22 12:20:42;;;;;;;5.25;1.13;;;8.10;99.40;;;;;;10431881;28;20134;-63
2022/11/22 12:25:44;;;;;;;4.50;1.05;;;8.10;99.20;;;;;;10440995;28;20017;-63
2022/11/22 12:30:55;;;;;;;3.95;1.33;;;8.10;99.20;;;;;;10430317;28;20039;-64
2022/11/22 12:35:57;;;;;;;2.65;1.02;;;8.10;99.20;;;;;;10429651;28;20028;-64
2022/11/22 12:41:02;;;;;;;6.70;1.45;;;8.10;99.20;;;;;;10428538;28;20301;-64
2022/11/22 12:46:15;;;;;;;2.65;1.00;;;8.10;99.20;;;;;;10437682;28;20351;-64
2022/11/22 12:51:37;;;;;;;4.35;1.08;;;8.10;99.20;;;;;;10426245;28;20329;-65
2022/11/22 12:56:48;;;;;;;4.70;2.17;;;8.10;99.20;;;;;;10447818;28;20036;-64
2022/11/22 13:01:58;;;;;;;3.60;1.25;;;8.10;99.20;;;;;;10449364;28;20514;-65
2022/11/22 13:07:12;;;;;;;4.53;1.02;;;8.10;99.20;;;;;;10448557;28;20206;-64
2022/11/22 13:12:17;;;;;;;1.67;0.70;;;8.10;99.20;;;;;;10446891;28;20621;-64
2022/11/22 13:17:19;;;;;;;4.93;1.38;;;8.10;99.20;;;;;;10444345;28;20029;-64
2022/11/22 13:22:45;;;;;;;2.50;1.08;;;8.10;99.20;;;;;;10442683;28;20483;-64
2022/11/22 13:27:49;;;;;;;6.30;1.10;;;7.90;99.10;;;;;;10444490;28;20078;-64
2022/11/22 13:32:53;;;;;;;3.15;1.00;;;8.20;99.20;;;;;;10450002;28;20032;-64
2022/11/22 13:38:14;;;;;;;3.65;1.50;;;8.20;99.20;;;;;;10434623;28;20480;-64
2022/11/22 13:43:15;;;;;;;3.30;1.35;;;8.10;99.20;;;;;;10445914;28;20551;-64
2022/11/22 13:48:38;;;;;;;3.95;1.10;;;8.40;99.30;;;;;;10444197;28;20031;-64
2022/11/22 13:53:44;;;;;;;2.63;1.25;;;8.10;99.20;;;;;;10445571;28;20028;-65
2022/11/22 13:58:50;;;;;;;3.17;0.85;;;8.10;99.20;;;;;;10446643;28;20043;-64
2022/11/22 14:03:51;;;;;;;1.52;1.20;;;8.10;99.20;;;;;;10442777;28;20031;-64
2022/11/22 14:09:31;;;;;;;3.88;1.20;;;8.10;99.20;;;;;;10442916;28;20039;-64
2022/11/22 14:15:21;;;;;;;4.25;1.20;;;8.10;99.20;;;;;;10431656;28;20048;-64
2022/11/22 14:20:33;;;;;;;3.17;1.10;;;8.10;99.20;;;;;;10354404;28;20044;-62
2022/11/22 14:25:39;;;;;;;4.20;0.80;;;8.10;99.20;;;;;;10441692;28;20333;-65
2022/11/22 14:30:49;;;;;;;1.88;0.80;;;8.40;99.30;;;;;;10437622;28;20020;-64
2022/11/22 14:36:10;;;;;;;1.92;0.93;;;8.10;99.20;;;;;;10436392;28;20118;-64
2022/11/22 14:41:26;;;;;;;4.28;0.82;;;8.40;99.30;;;;;;10413190;28;20382;-63
2022/11/22 14:46:35;;;;;;;2.08;0.80;;;8.10;99.20;;;;;;10415747;28;20029;-63
2022/11/22 14:51:37;;;;;;;1.60;0.75;;;8.10;99.20;;;;;;10422702;28;20361;-64
2022/11/22 14:56:42;;;;;;;5.32;1.00;;;8.20;99.30;;;;;;10419710;28;20304;-63
2022/11/22 15:01:57;;;;;;;2.33;0.80;;;8.20;99.20;;;;;;10425325;28;20583;-64
2022/11/22 15:07:12;;;;;;;1.85;0.70;;;8.20;99.20;;;;;;10428732;28;20028;-63
2022/11/22 15:12:32;;;;;;;4.10;0.75;;;8.20;99.20;;;;;;10429331;28;20330;-63
2022/11/22 15:17:36;;;;;;;2.38;0.88;;;8.20;99.20;;;;;;10418373;28;20575;-63
2022/11/22 15:22:36;;;;;;;3.60;0.80;;;8.20;99.20;;;;;;10428903;28;20334;-62
2022/11/22 15:27:45;;;;;;;4.35;0.98;;;8.20;99.30;;;;;;10429494;28;20023;-62
2022/11/22 15:32:53;;;;;;;1.40;0.90;;;8.20;99.20;;;;;;10426230;28;20392;-64
2022/11/22 15:38:06;;;;;;;2.97;1.00;;;8.20;99.20;;;;;;10423753;28;20113;-63
2022/11/22 15:43:19;;;;;;;3.03;0.63;;;8.20;99.20;;;;;;10418638;28;20381;-63
2022/11/22 15:48:26;;;;;;;1.35;0.70;;;8.20;99.30;;;;;;10414052;28;20121;-63
2022/11/22 15:53:29;;;;;;;1.00;0.70;;;8.20;99.30;;;;;;10411753;28;20186;-63
2022/11/22 15:58:32;;;;;;;3.13;0.65;;;8.20;99.50;;;;;;10386893;28;20096;-64
2022/11/22 16:03:38;;;;;;;2.30;0.90;;;8.20;99.30;;;;;;10428599;28;20771;-66
2022/11/22 16:08:54;;;;;;;3.35;0.90;;;8.20;99.30;;;;;;10493366;28;20252;-63
2022/11/22 16:13:55;;;;;;;3.35;0.82;;;8.10;99.30;;;;;;10518263;28;20052;-63
2022/11/22 16:19:19;;;;;;;1.80;0.88;;;8.10;99.30;;;;;;10511546;28;20047;-64
2022/11/22 16:24:24;;;;;;;6.22;2.22;;;8.10;99.30;;;;;;10516908;28;20028;-63
2022/11/22 16:29:30;;;;;;;1.90;1.17;;;8.10;99.40;;;;;;10498368;28;20512;-63
2022/11/22 16:34:31;;;;;;;1.48;0.95;;;8.10;99.40;;;;;;10506140;28;20024;-63
2022/11/22 16:39:32;;;;;;;1.48;0.93;;;8.20;99.50;;;;;;10507795;28;20401;-64
2022/11/22 16:44:34;;;;;;;3.97;0.90;;;8.20;99.50;;;;;;10516152;28;20051;-63
2022/11/22 16:49:35;;;;;;;1.58;0.93;;;8.30;99.50;;;;;;10513551;28;20031;-64
2022/11/22 16:54:35;;;;;;;3.28;0.90;;;8.30;99.50;;;;;;10508776;28;20020;-65
2022/11/22 16:59:36;;;;;;;2.72;1.10;;;8.30;99.50;;;;;;10519475;28;20028;-65
2022/11/22 17:04:37;;;;;;;4.60;1.13;;;8.30;99.50;;;;;;10520212;28;20012;-63
2022/11/22 17:09:38;;;;;;;3.63;0.88;;;8.40;99.50;;;;;;10515771;28;20135;-63
2022/11/22 17:14:38;;;;;;;3.15;0.98;;;8.30;99.50;;;;;;10505594;28;20053;-64
2022/11/22 17:19:39;;;;;;;3.90;1.05;;;8.30;99.50;;;;;;10505618;28;20049;-63
2022/11/22 17:24:41;;;;;;;2.72;1.20;;;8.30;99.50;;;;;;10512341;28;20020;-63
2022/11/22 17:29:41;;;;;;;2.08;0.90;;;8.30;99.50;;;;;;10521476;28;20020;-63
2022/11/22 17:34:42;;;;;;;4.35;1.10;;;8.30;99.50;;;;;;10516945;28;20024;-64
2022/11/22 17:39:43;;;;;;;13.68;2.40;;;8.30;99.70;;;;;;10508759;28;20036;-62
2022/11/22 17:44:44;;;;;;;2.47;1.05;;;8.30;99.60;;;;;;10519839;28;20111;-63
2022/11/22 17:49:45;;;;;;;3.22;1.73;;;8.30;99.50;;;;;;10501346;28;20032;-64
2022/11/22 17:54:46;;;;;;;2.50;1.02;;;8.40;99.50;;;;;;10504185;28;20032;-65
2022/11/22 17:59:47;;;;;;;1.10;0.70;;;8.30;99.50;;;;;;10520218;28;20043;-64
2022/11/22 18:04:47;;;;;;;1.73;1.05;;;8.40;99.50;;;;;;10518406;28;20111;-63
2022/11/22 18:09:50;;;;;;;1.52;0.82;;;8.30;99.80;;;;;;10525613;28;20032;-63
2022/11/22 18:14:51;;;;;;;4.32;1.05;;;8.30;99.50;;;;;;10520889;28;20508;-64
2022/11/22 18:19:51;;;;;;;1.25;0.90;;;8.40;99.50;;;;;;10524799;28;20032;-63
2022/11/22 18:24:53;;;;;;;1.33;0.82;;;8.30;99.50;;;;;;10526989;28;20434;-63
2022/11/22 18:29:53;;;;;;;2.10;1.08;;;8.40;99.60;;;;;;10529462;28;20028;-63
2022/11/22 18:34:54;;;;;;;4.10;1.00;;;8.40;99.60;;;;;;10530186;28;20031;-65
2022/11/22 18:39:55;;;;;;;1.73;1.08;;;8.80;99.70;;;;;;10522033;28;20374;-64
2022/11/22 18:44:55;;;;;;;1.58;0.90;;;8.40;99.60;;;;;;10530244;28;20568;-63
2022/11/22 18:49:57;;;;;;;1.27;0.80;;;8.40;99.60;;;;;;10524227;28;20030;-64
2022/11/22 18:54:57;;;;;;;1.30;0.90;;;8.40;99.60;;;;;;10529348;28;20046;-64
2022/11/22 18:59:58;;;;;;;1.65;1.00;;;8.40;99.60;;;;;;10515429;28;20435;-64
2022/11/22 19:05:00;;;;;;;1.67;0.88;;;8.40;99.60;;;;;;10509366;28;20541;-64
2022/11/22 19:10:01;;;;;;;1.55;0.90;;;8.50;99.60;;;;;;10519878;28;20082;-64
2022/11/22 19:15:02;;;;;;;2.63;1.20;;;8.40;99.60;;;;;;10525784;28;20393;-63
2022/11/22 19:20:04;;;;;;;2.03;1.10;;;8.40;99.60;;;;;;10501692;28;20039;-63
2022/11/22 19:25:05;;;;;;;1.77;1.20;;;8.40;99.60;;;;;;10508572;28;20089;-63
2022/11/22 19:30:06;;;;;;;1.73;1.20;;;8.40;99.70;;;;;;10513860;28;20070;-64
2022/11/22 19:35:07;;;;;;;1.58;0.90;;;8.40;99.70;;;;;;10509818;28;20020;-64
2022/11/22 19:40:09;;;;;;;1.70;0.98;;;8.40;99.70;;;;;;10518703;28;20046;-64
2022/11/22 19:45:10;;;;;;;2.50;1.30;;;8.40;99.70;;;;;;10521354;28;20111;-65
2022/11/22 19:50:11;;;;;;;2.58;1.20;;;8.40;99.80;;;;;;10520461;28;20060;-64
2022/11/22 19:55:12;;;;;;;1.40;1.20;;;8.40;99.80;;;;;;10512811;28;20111;-63
2022/11/22 20:00:13;;;;;;;2.05;1.33;;;8.40;99.80;;;;;;10498899;28;20557;-64
2022/11/22 20:05:14;;;;;;;2.67;1.48;;;8.40;99.80;;;;;;10506059;28;20020;-64
2022/11/22 20:10:14;;;;;;;1.90;1.40;;;8.40;99.80;;;;;;10509847;28;20085;-64
2022/11/22 20:15:16;;;;;;;2.63;1.90;;;8.40;99.90;;;;;;10510660;28;20036;-63
2022/11/22 20:20:17;;;;;;;2.70;1.90;;;8.40;99.90;;;;;;10506440;28;20101;-64
2022/11/22 20:25:18;;;;;;;2.47;1.73;;;8.40;99.90;;;;;;10511622;28;20572;-65
2022/11/22 20:30:18;;;;;;;3.75;1.88;;;8.40;99.90;;;;;;10516072;28;20033;-63
2022/11/22 20:35:19;;;;;;;2.75;1.73;;;8.50;99.90;;;;;;10522410;28;20016;-64
2022/11/22 20:40:20;;;;;;;2.70;1.95;;;8.40;99.90;;;;;;10514560;28;20039;-63
2022/11/22 20:45:21;;;;;;;2.30;1.83;;;8.50;99.90;;;;;;10509685;28;20027;-63
2022/11/22 20:50:21;;;;;;;2.78;2.08;;;8.40;99.90;;;;;;10510783;28;20031;-66
2022/11/22 20:55:22;;;;;;;3.00;2.08;;;8.50;99.90;;;;;;10513937;28;20024;-65
2022/11/22 21:00:23;;;;;;;3.45;2.20;;;8.50;99.90;;;;;;10517456;28;20050;-64
2022/11/22 21:05:24;;;;;;;2.58;2.08;;;8.40;99.90;;;;;;10508366;28;20085;-62
2022/11/22 21:10:24;;;;;;;3.42;2.22;;;8.50;99.90;;;;;;10512113;28;20016;-64
2022/11/22 21:15:25;;;;;;;4.18;2.38;;;8.50;99.90;;;;;;10509612;28;20078;-64
2022/11/22 21:20:26;;;;;;;4.15;2.55;;;8.60;99.90;;;;;;10518239;28;20055;-66
2022/11/22 21:25:27;;;;;;;4.10;2.38;;;8.60;99.90;;;;;;10516136;28;20114;-64
2022/11/22 21:30:27;;;;;;;3.45;2.35;;;8.60;99.90;;;;;;10516889;28;20396;-64
2022/11/22 21:35:28;;;;;;;5.47;2.40;;;8.60;99.90;;;;;;10521882;28;20123;-64
2022/11/22 21:40:32;;;;;;;3.80;2.65;;;8.60;99.90;;;;;;10501371;28;20544;-64
2022/11/22 21:45:32;;;;;;;2.78;2.20;;;8.60;99.90;;;;;;10507987;28;20111;-63
2022/11/22 21:50:33;;;;;;;4.55;2.60;;;8.60;99.90;;;;;;10504978;28;20032;-63
2022/11/22 21:55:34;;;;;;;3.20;2.33;;;8.60;99.90;;;;;;10503030;28;20045;-63
2022/11/22 22:00:35;;;;;;;3.15;2.50;;;8.60;99.90;;;;;;10503713;28;20544;-64
2022/11/22 22:05:36;;;;;;;3.80;2.70;;;8.60;99.90;;;;;;10497034;28;20022;-63
2022/11/22 22:10:37;;;;;;;3.22;2.55;;;8.60;99.90;;;;;;10521271;28;20400;-63
2022/11/22 22:15:38;;;;;;;4.88;2.75;;;8.60;99.90;;;;;;10514775;28;20059;-65
2022/11/22 22:20:39;;;;;;;3.50;2.67;;;8.60;99.90;;;;;;10515141;28;20047;-63
2022/11/22 22:25:40;;;;;;;5.18;2.80;;;8.60;99.90;;;;;;10514854;28;20027;-64
2022/11/22 22:30:41;;;;;;;4.82;2.70;;;8.60;99.90;;;;;;10515003;28;20032;-63
2022/11/22 22:35:41;;;;;;;2.90;2.60;;;8.60;99.90;;;;;;10533048;28;20016;-63
2022/11/22 22:40:42;;;;;;;4.55;2.92;;;8.60;99.90;;;;;;10526585;28;20307;-63
2022/11/22 22:45:42;;;;;;;4.07;2.95;;;8.60;99.90;;;;;;10526620;28;20381;-63
2022/11/22 22:50:44;;;;;;;4.20;2.70;;;8.60;99.90;;;;;;10524729;28;20024;-63
2022/11/22 22:55:54;;;;;;;3.83;2.90;;;8.60;99.90;;;;;;10521440;28;20804;-63
2022/11/22 23:01:16;;;;;;;4.05;2.60;;;8.60;99.90;;;;;;10526347;28;20384;-63
2022/11/22 23:06:17;;;;;;;5.00;2.67;;;8.60;99.90;;;;;;10506958;28;20028;-63
2022/11/22 23:12:09;;;;;;;5.03;3.03;;;8.70;99.90;;;;;;10504769;28;20032;-63
2022/11/22 23:16:42;;;;;;;5.65;3.20;;;8.70;99.90;;;;;;10527122;28;20044;-63
2022/11/22 23:21:43;;;;;;;7.38;2.95;;;8.70;99.90;;;;;;10527112;28;20028;-63
2022/11/22 23:26:44;;;;;;;5.22;2.60;;;8.70;99.90;;;;;;10523637;28;20028;-63
2022/11/22 23:31:44;;;;;;;5.35;3.30;;;8.70;99.90;;;;;;10527982;28;20035;-63
2022/11/22 23:36:45;;;;;;;6.78;3.17;;;8.80;99.90;;;;;;10527789;28;20027;-62
2022/11/22 23:41:46;;;;;;;6.47;2.95;;;8.70;99.90;;;;;;10512515;28;20495;-63
2022/11/22 23:46:47;;;;;;;4.63;2.65;;;8.80;99.90;;;;;;10526786;28;20032;-62
2022/11/22 23:51:49;;;;;;;6.55;3.38;;;8.70;99.90;;;;;;10527751;28;20531;-63
2022/11/22 23:56:49;;;;;;;6.07;2.90;;;8.70;99.90;;;;;;10526401;28;20032;-63
